Overview Statistics Trail Chart Weather Telemetry Raw packets
 

This is the latest recevied weather packets stored in our database for station/object PY2XH-13. If no packets are shown the sender has not sent any weather packets the latest 10 day(s).

<< 7 8 9 10 11 12 13 >>
Time Temp. Humidity Pressure Rain* Wind** Luminosity Snow
1788038165 25.56° C 55% 1025.9 hPa - - - -
1788036365 26.11° C 54% 1026 hPa - - - -
1788034565 26.11° C 53% 1025.9 hPa - - - -
1788032765 26.67° C 52% 1025.8 hPa - - - -
1788030964 26.67° C 51% 1025.7 hPa - - - -
1788029164 26.67° C 51% 1025.4 hPa - - - -
1788027365 26.11° C 53% 1025.5 hPa - - - -
1788025565 26.67° C 51% 1025.7 hPa - - - -
1788023764 26.67° C 50% 1026.1 hPa - - - -
1788021964 26.67° C 49% 1026.5 hPa - - - -
1788020165 27.22° C 47% 1026.7 hPa - - - -
1788018365 27.22° C 48% 1027.1 hPa - - - -
1788016564 26.67° C 49% 1027.1 hPa - - - -
1788014764 27.22° C 49% 1027.3 hPa - - - -
1788012965 26.67° C 49% 1027.8 hPa - - - -
1788011164 25.56° C 53% 1028.3 hPa - - - -
1788009364 25.56° C 52% 1028.4 hPa - - - -
1788007564 25° C 54% 1028.3 hPa - - - -
1788005764 23.89° C 55% 1028.2 hPa - - - -
1788003964 24.44° C 54% 1028.1 hPa - - - -
1788002164 23.89° C 56% 1027.8 hPa - - - -
1788000364 23.89° C 56% 1027.7 hPa - - - -
1787998565 23.89° C 56% 1027.2 hPa - - - -
1787996765 23.89° C 58% 1027 hPa - - - -
1787994965 23.89° C 60% 1026.9 hPa - - - -

* Rain since midnight (hover to see other rain measurements)
** Current wind speed in m/s (hover to see current wind gust speed)